createdAt,value
2018-09-22T00:00:06.473Z,2.20
2018-09-22T00:01:06.435Z,2.60
2018-09-22T00:02:06.394Z,2.20
2018-09-22T00:03:06.358Z,2.60
2018-09-22T00:04:06.324Z,2.30
2018-09-22T00:05:06.281Z,2.30
2018-09-22T00:06:06.245Z,2.40
2018-09-22T00:07:06.211Z,2.40
2018-09-22T00:08:06.172Z,2.90
2018-09-22T00:09:06.144Z,2.50
2018-09-22T00:10:06.098Z,2.40
2018-09-22T00:11:06.060Z,2.40
2018-09-22T00:12:06.020Z,2.40
2018-09-22T00:13:05.987Z,2.50
2018-09-22T00:14:05.953Z,2.60
2018-09-22T00:15:05.913Z,2.50
2018-09-22T00:16:05.877Z,2.70
2018-09-22T00:17:05.837Z,2.40
2018-09-22T00:18:05.797Z,2.10
2018-09-22T00:19:05.759Z,2.40
2018-09-22T00:20:05.721Z,2.80
2018-09-22T00:21:05.697Z,2.30
2018-09-22T00:22:05.648Z,2.50
2018-09-22T00:23:05.614Z,2.40
2018-09-22T00:24:05.580Z,2.60
2018-09-22T00:25:05.539Z,2.30
2018-09-22T00:26:05.501Z,2.00
2018-09-22T00:27:05.503Z,2.80
2018-09-22T00:28:05.424Z,2.50
2018-09-22T00:29:05.390Z,2.10
2018-09-22T00:30:05.350Z,2.40
2018-09-22T00:31:05.312Z,2.40
2018-09-22T00:32:05.273Z,2.30
2018-09-22T00:33:05.240Z,2.10
2018-09-22T00:34:05.200Z,2.10
2018-09-22T00:35:05.163Z,2.40
2018-09-22T00:36:05.134Z,2.70
2018-09-22T00:37:05.084Z,2.60
2018-09-22T00:38:05.048Z,2.40
2018-09-22T00:39:05.011Z,2.20
2018-09-22T00:40:04.973Z,2.00
2018-09-22T00:41:04.942Z,2.30
2018-09-22T00:42:04.901Z,2.30
2018-09-22T00:43:04.863Z,2.10
2018-09-22T00:44:04.827Z,2.40
2018-09-22T00:45:04.794Z,2.70
2018-09-22T00:46:04.752Z,2.00
2018-09-22T00:47:04.715Z,2.30
2018-09-22T00:48:04.680Z,2.20
2018-09-22T00:49:04.657Z,2.30
2018-09-22T00:50:04.608Z,2.40
2018-09-22T00:51:04.564Z,3.00
2018-09-22T00:52:04.534Z,2.10
2018-09-22T00:53:04.498Z,2.70
2018-09-22T00:54:04.457Z,2.10
2018-09-22T00:55:04.418Z,2.30
2018-09-22T00:56:04.392Z,2.40
2018-09-22T00:57:04.340Z,2.60
2018-09-22T00:58:04.304Z,2.30
2018-09-22T00:59:04.272Z,2.20
2018-09-22T01:00:04.255Z,2.40
2018-09-22T01:01:04.189Z,2.30
2018-09-22T01:02:04.154Z,2.30
2018-09-22T01:03:04.120Z,2.70
2018-09-22T01:04:04.079Z,2.20
2018-09-22T01:05:04.046Z,2.60
2018-09-22T01:06:04.013Z,2.10
2018-09-22T01:07:03.971Z,2.30
2018-09-22T01:08:03.932Z,2.80
2018-09-22T01:09:03.895Z,2.70
2018-09-22T01:10:03.855Z,2.50
2018-09-22T01:11:03.818Z,2.50
2018-09-22T01:12:03.777Z,2.70
2018-09-22T01:13:03.748Z,2.00
2018-09-22T01:14:03.708Z,2.50
2018-09-22T01:15:03.667Z,2.80
2018-09-22T01:16:03.626Z,2.20
2018-09-22T01:17:03.598Z,2.70
2018-09-22T01:18:03.558Z,2.70
2018-09-22T01:19:03.520Z,2.50
2018-09-22T01:20:03.484Z,2.40
2018-09-22T01:21:03.441Z,2.70
2018-09-22T01:22:03.405Z,2.60
2018-09-22T01:23:03.371Z,2.80
2018-09-22T01:24:03.327Z,2.10
2018-09-22T01:25:03.298Z,2.40
2018-09-22T01:26:03.256Z,2.40
2018-09-22T01:27:03.222Z,2.60
2018-09-22T01:28:03.185Z,2.10
2018-09-22T01:29:03.142Z,2.50
2018-09-22T01:30:03.108Z,2.70
2018-09-22T01:31:03.072Z,2.50
2018-09-22T01:32:03.033Z,2.20
2018-09-22T01:33:02.994Z,2.20
2018-09-22T01:34:02.956Z,2.40
2018-09-22T01:35:02.924Z,2.30
2018-09-22T01:36:02.879Z,2.60
2018-09-22T01:37:02.847Z,2.10
2018-09-22T01:38:02.811Z,2.60
2018-09-22T01:39:02.771Z,2.60
2018-09-22T01:40:02.734Z,2.80
2018-09-22T01:41:02.702Z,2.50
2018-09-22T01:42:02.655Z,2.70
2018-09-22T01:43:02.619Z,2.30
2018-09-22T01:44:02.579Z,2.20
2018-09-22T01:45:02.551Z,2.30
2018-09-22T01:46:02.507Z,2.70
2018-09-22T01:47:02.469Z,3.00
2018-09-22T01:48:02.432Z,2.50
2018-09-22T01:49:02.398Z,2.70
2018-09-22T01:50:02.357Z,2.80
2018-09-22T01:51:02.324Z,2.50
2018-09-22T01:52:02.285Z,2.60
2018-09-22T01:53:02.242Z,3.20
2018-09-22T01:54:02.205Z,2.90
2018-09-22T01:55:02.168Z,2.50
2018-09-22T01:56:02.127Z,2.60
2018-09-22T01:57:02.101Z,2.50
2018-09-22T01:58:02.058Z,2.50
2018-09-22T01:59:02.022Z,2.40
2018-09-22T02:00:01.985Z,2.70
2018-09-22T02:01:01.940Z,2.50
2018-09-22T02:02:01.907Z,2.80
2018-09-22T02:03:01.872Z,2.20
2018-09-22T02:04:01.841Z,2.40
2018-09-22T02:05:01.796Z,2.80
2018-09-22T02:06:01.754Z,2.60
2018-09-22T02:07:01.716Z,2.30
2018-09-22T02:08:01.677Z,2.80
2018-09-22T02:09:01.645Z,2.60
2018-09-22T02:10:01.605Z,2.50
2018-09-22T02:11:01.569Z,2.70
2018-09-22T02:12:01.536Z,2.70
2018-09-22T02:13:01.490Z,2.90
2018-09-22T02:14:01.458Z,2.60
2018-09-22T02:15:01.433Z,2.60
2018-09-22T02:16:01.380Z,2.20
2018-09-22T02:17:01.347Z,3.00
2018-09-22T02:18:01.305Z,2.20
2018-09-22T02:19:01.270Z,2.50
2018-09-22T02:20:01.232Z,2.50
2018-09-22T02:21:01.197Z,2.20
2018-09-22T02:22:01.157Z,2.20
2018-09-22T02:23:01.119Z,2.90
2018-09-22T02:24:01.083Z,2.40
2018-09-22T02:25:01.048Z,2.40
2018-09-22T02:26:01.004Z,2.40
2018-09-22T02:27:00.966Z,2.60
2018-09-22T02:28:00.928Z,2.20
2018-09-22T02:29:00.900Z,2.60
2018-09-22T02:30:00.858Z,2.70
2018-09-22T02:31:00.825Z,2.40
2018-09-22T02:32:00.788Z,2.50
2018-09-22T02:33:00.740Z,2.30
2018-09-22T02:34:00.702Z,2.40
2018-09-22T02:35:00.670Z,2.50
2018-09-22T02:36:00.634Z,2.30
2018-09-22T02:37:00.590Z,2.20
2018-09-22T02:38:00.556Z,2.50
2018-09-22T02:39:00.517Z,2.40
2018-09-22T02:40:00.480Z,2.40
2018-09-22T02:41:00.444Z,2.10
2018-09-22T02:42:00.406Z,2.20
2018-09-22T02:43:00.372Z,2.40
2018-09-22T02:44:00.332Z,2.40
2018-09-22T02:45:00.290Z,3.00
2018-09-22T02:46:00.250Z,2.50
2018-09-22T02:47:00.221Z,2.20
2018-09-22T02:48:00.174Z,2.70
2018-09-22T02:49:00.142Z,2.20
2018-09-22T02:50:00.105Z,2.50
2018-09-22T02:51:00.064Z,2.90
2018-09-22T02:52:00.025Z,2.70
2018-09-22T02:52:59.993Z,2.20
2018-09-22T02:53:59.953Z,2.60
2018-09-22T02:54:59.913Z,2.20
2018-09-22T02:55:59.884Z,2.70
2018-09-22T02:56:59.878Z,2.50
2018-09-22T02:57:59.821Z,3.00
2018-09-22T02:58:59.763Z,2.70
2018-09-22T02:59:59.726Z,3.00
2018-09-22T03:00:59.693Z,2.30
2018-09-22T03:01:59.700Z,2.70
2018-09-22T03:02:59.614Z,2.50
2018-09-22T03:03:59.601Z,3.40
2018-09-22T03:04:59.540Z,2.80
2018-09-22T03:05:59.506Z,2.70
2018-09-22T03:06:59.536Z,3.00
2018-09-22T03:07:59.458Z,2.20
2018-09-22T03:08:59.388Z,2.60
2018-09-22T03:09:59.363Z,2.80
2018-09-22T03:10:59.309Z,2.60
2018-09-22T03:11:59.338Z,2.80
2018-09-22T03:12:59.239Z,2.60
2018-09-22T03:13:59.196Z,2.20
2018-09-22T03:14:59.168Z,2.70
2018-09-22T03:15:59.127Z,2.40
2018-09-22T03:16:59.081Z,2.50
2018-09-22T03:17:59.045Z,2.60
2018-09-22T03:18:59.014Z,2.40
2018-09-22T03:19:58.968Z,2.30
2018-09-22T03:20:58.945Z,2.00
2018-09-22T03:21:58.901Z,2.40
2018-09-22T03:22:58.856Z,3.00
2018-09-22T03:23:58.817Z,2.90
2018-09-22T03:24:58.788Z,2.10
2018-09-22T03:25:58.748Z,2.70
2018-09-22T03:26:58.713Z,2.30
2018-09-22T03:27:58.673Z,2.50
2018-09-22T03:28:58.629Z,2.70
2018-09-22T03:29:58.595Z,2.80
2018-09-22T03:30:58.555Z,2.30
2018-09-22T03:31:58.518Z,2.80
2018-09-22T03:32:58.489Z,2.50
2018-09-22T03:33:58.444Z,2.60
2018-09-22T03:34:58.410Z,2.50
2018-09-22T03:35:58.994Z,2.60
2018-09-22T03:36:58.337Z,2.90
2018-09-22T03:37:58.298Z,2.40
2018-09-22T03:38:58.257Z,2.80
2018-09-22T03:39:58.220Z,2.10
2018-09-22T03:40:58.177Z,2.40
2018-09-22T03:41:58.141Z,2.10
2018-09-22T03:42:58.103Z,2.00
2018-09-22T03:43:58.063Z,2.60
2018-09-22T03:44:58.031Z,2.50
2018-09-22T03:45:57.991Z,2.20
2018-09-22T03:46:57.952Z,2.70
2018-09-22T03:47:57.918Z,2.20
2018-09-22T03:48:57.876Z,2.10
2018-09-22T03:49:57.837Z,2.50
2018-09-22T03:50:57.798Z,2.10
2018-09-22T03:51:57.761Z,2.20
2018-09-22T03:52:57.741Z,2.50
2018-09-22T04:07:34.978Z,1.70
2018-09-22T04:08:34.893Z,2.30
2018-09-22T04:09:34.852Z,2.70
2018-09-22T04:10:34.819Z,2.90
2018-09-22T04:11:34.781Z,2.30
2018-09-22T04:12:34.731Z,2.30
2018-09-22T04:13:34.691Z,2.30
2018-09-22T04:14:34.655Z,2.40
2018-09-22T04:15:34.612Z,2.20
2018-09-22T04:16:34.581Z,2.60
2018-09-22T04:17:34.530Z,2.10
2018-09-22T04:18:34.494Z,2.60
2018-09-22T04:19:34.448Z,2.30
2018-09-22T04:20:34.415Z,2.40
2018-09-22T04:21:34.382Z,2.50
2018-09-22T04:22:34.335Z,2.30
2018-09-22T04:23:34.300Z,2.40
2018-09-22T04:24:34.266Z,2.20
2018-09-22T04:25:34.236Z,2.40
2018-09-22T04:26:34.184Z,2.40
2018-09-22T04:27:34.142Z,2.70
2018-09-22T04:28:34.103Z,2.70
2018-09-22T04:29:34.065Z,2.30
2018-09-22T04:30:34.029Z,2.40
2018-09-22T04:31:33.992Z,2.30
2018-09-22T04:32:33.957Z,2.20
2018-09-22T04:33:33.916Z,2.30
2018-09-22T04:34:33.872Z,2.00
2018-09-22T04:35:33.839Z,2.50
2018-09-22T04:36:33.798Z,2.70
2018-09-22T04:37:33.778Z,2.40
2018-09-22T04:38:33.724Z,2.70
2018-09-22T04:39:33.679Z,2.10
2018-09-22T04:40:33.653Z,2.40
2018-09-22T04:41:33.611Z,2.50
2018-09-22T04:42:33.570Z,2.00
2018-09-22T04:43:33.536Z,2.40
2018-09-22T04:44:33.494Z,2.30
2018-09-22T04:45:33.478Z,2.40
2018-09-22T04:46:33.421Z,2.50
2018-09-22T04:47:33.380Z,2.60
2018-09-22T04:48:33.340Z,2.30
2018-09-22T04:49:33.306Z,2.20
2018-09-22T04:50:33.267Z,2.30
2018-09-22T04:51:33.224Z,2.10
2018-09-22T04:52:33.189Z,2.40
2018-09-22T04:53:33.156Z,2.30
2018-09-22T04:54:33.109Z,2.40
2018-09-22T04:55:33.078Z,2.50
2018-09-22T04:56:33.041Z,2.20
2018-09-22T04:57:32.998Z,2.20
2018-09-22T04:58:32.966Z,2.00
2018-09-22T04:59:32.924Z,2.30
2018-09-22T05:00:32.887Z,2.20
2018-09-22T05:01:32.845Z,2.40
2018-09-22T05:02:32.805Z,2.50
2018-09-22T05:03:32.776Z,2.60
2018-09-22T05:04:32.735Z,2.30
2018-09-22T05:05:32.694Z,2.10
2018-09-22T05:06:32.658Z,2.70
2018-09-22T05:07:32.630Z,2.20
2018-09-22T05:08:32.582Z,2.00
2018-09-22T05:09:32.546Z,2.40
2018-09-22T05:10:32.509Z,2.10
2018-09-22T05:11:32.470Z,2.30
2018-09-22T05:12:32.428Z,2.50
2018-09-22T05:13:32.391Z,2.60
2018-09-22T05:14:32.350Z,2.10
2018-09-22T05:15:32.357Z,2.00
2018-09-22T05:16:32.279Z,2.10
2018-09-22T05:17:32.244Z,2.90
2018-09-22T05:18:32.218Z,2.40
2018-09-22T05:19:32.169Z,2.50
2018-09-22T05:20:32.129Z,2.30
2018-09-22T05:21:32.093Z,2.40
2018-09-22T05:22:32.054Z,2.60
2018-09-22T05:23:32.010Z,2.60
2018-09-22T05:24:31.974Z,2.30
2018-09-22T05:25:31.935Z,2.60
2018-09-22T05:26:31.895Z,2.30
2018-09-22T05:27:31.864Z,2.30
2018-09-22T05:28:31.824Z,2.80
2018-09-22T05:29:31.790Z,2.30
2018-09-22T05:30:31.752Z,2.40
2018-09-22T05:31:31.707Z,2.30
2018-09-22T05:32:31.671Z,2.70
2018-09-22T05:33:31.739Z,2.30
2018-09-22T05:34:31.594Z,2.40
2018-09-22T05:35:31.589Z,2.30
2018-09-22T05:36:31.520Z,2.50
2018-09-22T05:37:31.487Z,2.30
2018-09-22T05:38:31.444Z,2.50
2018-09-22T05:39:31.413Z,2.50
2018-09-22T05:40:31.367Z,2.10
2018-09-22T05:41:31.351Z,2.50
2018-09-22T05:42:31.312Z,2.60
2018-09-22T05:43:31.254Z,2.50
2018-09-22T05:44:31.216Z,2.90
2018-09-22T05:45:31.175Z,3.00
2018-09-22T05:46:31.142Z,2.30
2018-09-22T05:47:31.107Z,2.40
2018-09-22T05:48:31.064Z,2.50
2018-09-22T05:49:31.025Z,2.20
2018-09-22T05:50:30.990Z,2.30
2018-09-22T05:51:30.949Z,2.40
2018-09-22T05:52:30.917Z,2.30
2018-09-22T05:53:30.874Z,2.80
2018-09-22T05:54:30.839Z,2.50
2018-09-22T05:55:30.797Z,2.60
2018-09-22T05:56:30.758Z,2.30
2018-09-22T05:57:30.720Z,2.80
2018-09-22T05:58:30.682Z,2.50
2018-09-22T05:59:30.659Z,3.20
2018-09-22T06:00:30.612Z,2.50
2018-09-22T06:01:30.572Z,2.90
2018-09-22T06:02:30.535Z,2.40
2018-09-22T06:03:30.587Z,2.60
2018-09-22T06:04:30.457Z,2.50
2018-09-22T06:05:30.419Z,2.80
2018-09-22T06:06:30.377Z,2.40
2018-09-22T06:07:30.350Z,2.30
2018-09-22T06:08:30.307Z,2.60
2018-09-22T06:09:30.270Z,2.20
2018-09-22T06:10:30.226Z,2.40
2018-09-22T06:11:30.193Z,2.50
2018-09-22T06:12:30.157Z,2.30
2018-09-22T06:13:30.116Z,2.20
2018-09-22T06:14:30.080Z,2.30
2018-09-22T06:15:30.041Z,2.60
2018-09-22T06:16:30.002Z,2.50
2018-09-22T06:17:29.964Z,2.60
2018-09-22T06:18:29.930Z,2.60
2018-09-22T06:19:29.891Z,2.60
2018-09-22T06:20:29.850Z,2.60
2018-09-22T06:21:29.823Z,2.30
2018-09-22T06:22:29.778Z,2.10
2018-09-22T06:23:29.802Z,2.50
2018-09-22T06:24:29.697Z,2.30
2018-09-22T06:25:29.661Z,2.20
2018-09-22T06:26:29.627Z,3.00
2018-09-22T06:27:29.584Z,2.80
2018-09-22T06:28:29.547Z,2.30
2018-09-22T06:29:29.510Z,2.40
2018-09-22T06:30:29.470Z,3.10
2018-09-22T06:31:29.436Z,2.40
2018-09-22T06:32:29.396Z,2.40
2018-09-22T06:33:29.358Z,2.70
2018-09-22T06:34:29.332Z,2.70
2018-09-22T06:35:29.281Z,2.20
2018-09-22T06:36:29.245Z,2.10
2018-09-22T06:37:29.234Z,2.20
2018-09-22T06:38:29.166Z,2.40
2018-09-22T06:39:29.135Z,2.40
2018-09-22T06:40:29.094Z,2.40
2018-09-22T06:41:29.065Z,2.70
2018-09-22T06:42:29.020Z,2.60
2018-09-22T06:43:28.983Z,2.30
2018-09-22T06:44:28.946Z,2.40
2018-09-22T06:45:28.911Z,2.10
2018-09-22T06:46:28.876Z,2.50
2018-09-22T06:47:28.832Z,3.10
2018-09-22T06:48:28.794Z,2.50
2018-09-22T06:49:28.754Z,2.40
2018-09-22T06:50:28.719Z,3.20
2018-09-22T06:51:28.689Z,2.30
2018-09-22T06:52:28.648Z,2.30
2018-09-22T06:53:28.604Z,2.50
2018-09-22T06:54:28.570Z,2.00
2018-09-22T06:55:28.526Z,2.60
2018-09-22T06:56:28.489Z,2.20
2018-09-22T06:57:28.457Z,2.60
2018-09-22T06:58:28.423Z,2.30
2018-09-22T06:59:28.397Z,2.70
2018-09-22T07:00:28.341Z,2.20
2018-09-22T07:01:28.301Z,2.00
2018-09-22T07:02:28.270Z,2.40
2018-09-22T07:03:28.232Z,2.30
2018-09-22T07:04:28.191Z,2.20
2018-09-22T07:05:28.156Z,2.10
2018-09-22T07:06:28.189Z,2.10
2018-09-22T07:07:28.077Z,2.50
2018-09-22T07:08:28.040Z,2.80
2018-09-22T07:09:28.006Z,2.50
2018-09-22T07:10:27.963Z,2.70
2018-09-22T07:11:27.935Z,2.40
2018-09-22T07:12:27.900Z,2.50
2018-09-22T07:13:27.855Z,2.50
2018-09-22T07:14:27.813Z,2.30
2018-09-22T07:15:27.787Z,2.40
2018-09-22T07:16:27.745Z,2.30
2018-09-22T07:17:27.707Z,2.30
2018-09-22T07:18:27.671Z,2.20
2018-09-22T07:19:27.653Z,2.20
2018-09-22T07:20:27.596Z,2.30
2018-09-22T07:21:27.559Z,2.70
2018-09-22T07:22:27.522Z,2.10
2018-09-22T07:23:27.486Z,1.90
2018-09-22T07:24:27.441Z,2.60
2018-09-22T07:25:27.422Z,2.40
2018-09-22T07:26:27.427Z,3.00
2018-09-22T07:27:27.338Z,2.60
2018-09-22T07:28:27.297Z,2.70
2018-09-22T07:29:27.256Z,2.80
2018-09-22T07:30:27.216Z,2.30
2018-09-22T07:31:27.188Z,2.20
2018-09-22T07:32:27.146Z,2.30
2018-09-22T07:33:27.112Z,2.60
2018-09-22T07:34:27.077Z,2.70
2018-09-22T07:35:27.034Z,2.30
2018-09-22T07:36:27.004Z,2.20
2018-09-22T07:37:27.017Z,2.10
2018-09-22T07:38:26.920Z,2.50
2018-09-22T07:39:26.911Z,2.20
2018-09-22T07:40:26.849Z,2.30
2018-09-22T07:41:26.814Z,1.90
2018-09-22T07:42:26.784Z,2.40
2018-09-22T07:43:26.739Z,2.60
2018-09-22T07:44:26.698Z,2.20
2018-09-22T07:45:26.666Z,2.60
2018-09-22T07:46:26.632Z,2.20
2018-09-22T07:47:26.593Z,2.20
2018-09-22T07:48:26.551Z,3.00
2018-09-22T07:49:26.524Z,2.10
2018-09-22T07:50:26.478Z,2.90
2018-09-22T07:51:26.447Z,2.00
2018-09-22T07:52:26.413Z,2.30
2018-09-22T07:53:26.375Z,2.10
2018-09-22T07:54:26.338Z,2.10
2018-09-22T07:55:26.295Z,2.50
2018-09-22T07:56:26.259Z,2.70
2018-09-22T07:57:26.222Z,2.40
2018-09-22T07:58:26.186Z,2.40
2018-09-22T07:59:26.153Z,2.10
2018-09-22T08:00:26.127Z,2.30
2018-09-22T08:01:26.076Z,2.40
2018-09-22T08:02:26.038Z,2.10
2018-09-22T08:03:26.009Z,2.00
2018-09-22T08:04:25.969Z,2.10
2018-09-22T08:05:25.933Z,2.80
2018-09-22T08:06:25.898Z,2.20
2018-09-22T08:07:25.864Z,2.20
2018-09-22T08:08:25.827Z,2.10
2018-09-22T08:09:25.784Z,2.50
2018-09-22T08:10:25.751Z,2.40
2018-09-22T08:11:25.716Z,2.20
2018-09-22T08:12:25.680Z,1.90
2018-09-22T08:13:25.643Z,2.40
2018-09-22T08:14:25.607Z,2.10
2018-09-22T08:15:25.565Z,2.00
2018-09-22T08:16:25.528Z,2.10
2018-09-22T08:17:25.501Z,2.40
2018-09-22T08:18:25.466Z,2.20
2018-09-22T08:19:25.419Z,2.30
2018-09-22T08:20:25.389Z,2.20
2018-09-22T08:21:25.348Z,2.20
2018-09-22T08:22:25.315Z,2.10
2018-09-22T08:23:25.284Z,2.20
2018-09-22T08:24:25.245Z,2.60
2018-09-22T08:25:25.207Z,2.20
2018-09-22T08:26:25.175Z,1.90
2018-09-22T08:27:25.133Z,2.60
2018-09-22T08:28:25.096Z,2.30
2018-09-22T08:29:25.067Z,2.40
2018-09-22T08:30:25.023Z,2.20
2018-09-22T08:31:24.992Z,2.50
2018-09-22T08:32:24.957Z,2.10
2018-09-22T08:33:24.917Z,2.00
2018-09-22T08:34:24.885Z,2.40
2018-09-22T08:35:24.848Z,2.20
2018-09-22T08:36:24.862Z,2.20
2018-09-22T08:37:24.833Z,2.50
2018-09-22T08:38:24.745Z,2.00
2018-09-22T08:39:24.700Z,2.00
2018-09-22T08:40:24.668Z,2.20
2018-09-22T08:41:24.630Z,2.10
2018-09-22T08:42:24.592Z,2.10
2018-09-22T08:43:24.568Z,2.40
2018-09-22T08:44:24.529Z,2.20
2018-09-22T08:45:24.490Z,2.10
2018-09-22T08:46:24.460Z,2.10
2018-09-22T08:47:24.423Z,2.00
2018-09-22T08:48:24.378Z,2.40
2018-09-22T08:49:24.353Z,2.10
2018-09-22T08:50:24.314Z,2.20
2018-09-22T08:51:24.272Z,1.90
2018-09-22T08:52:24.236Z,2.10
2018-09-22T08:53:24.200Z,1.80
2018-09-22T08:54:24.167Z,1.80
2018-09-22T08:55:24.134Z,2.20
2018-09-22T08:56:24.095Z,2.10
2018-09-22T08:57:24.067Z,1.90
2018-09-22T08:58:24.033Z,2.60
2018-09-22T08:59:23.986Z,2.20
2018-09-22T09:00:23.985Z,1.70
2018-09-22T09:01:23.927Z,2.10
2018-09-22T09:02:23.881Z,2.00
2018-09-22T09:03:23.850Z,2.20
2018-09-22T09:04:23.813Z,2.20
2018-09-22T09:05:23.773Z,2.60
2018-09-22T09:06:23.736Z,2.20
2018-09-22T09:07:23.707Z,2.00
2018-09-22T09:08:23.668Z,2.10
2018-09-22T09:09:23.634Z,2.00
2018-09-22T09:10:23.603Z,1.90
2018-09-22T09:11:23.594Z,1.70
2018-09-22T09:12:23.523Z,1.90
2018-09-22T09:13:23.501Z,2.00
2018-09-22T09:14:23.454Z,1.80
2018-09-22T09:15:23.422Z,1.70
2018-09-22T09:16:23.389Z,2.20
2018-09-22T09:17:23.351Z,1.70
2018-09-22T09:18:23.321Z,2.10
2018-09-22T09:19:23.276Z,1.90
2018-09-22T09:20:23.241Z,1.70
2018-09-22T09:21:23.209Z,2.50
2018-09-22T09:22:23.179Z,2.00
2018-09-22T09:23:23.141Z,1.60
2018-09-22T09:24:23.100Z,1.80
2018-09-22T09:25:23.090Z,2.00
2018-09-22T09:26:23.027Z,1.70
2018-09-22T09:27:23.041Z,2.80
2018-09-22T09:28:22.963Z,2.20
2018-09-22T09:29:22.925Z,1.80
2018-09-22T09:30:22.896Z,2.10
2018-09-22T09:31:22.864Z,1.70
2018-09-22T09:32:22.825Z,1.80
2018-09-22T09:33:22.782Z,2.40
2018-09-22T09:34:22.746Z,2.20
2018-09-22T09:35:22.750Z,1.80
2018-09-22T09:36:22.714Z,1.80
2018-09-22T09:37:22.640Z,2.20
2018-09-22T09:38:22.609Z,1.80
2018-09-22T09:39:22.581Z,1.90
2018-09-22T09:40:22.538Z,1.80
2018-09-22T09:41:22.504Z,1.80
2018-09-22T09:42:22.471Z,2.30
2018-09-22T09:43:22.471Z,2.30
2018-09-22T09:44:22.391Z,1.90
2018-09-22T09:45:22.358Z,2.00
2018-09-22T09:46:22.333Z,1.90
2018-09-22T09:47:22.290Z,2.00
2018-09-22T09:48:22.257Z,2.00
2018-09-22T09:49:22.220Z,1.70
2018-09-22T09:50:22.187Z,2.00
2018-09-22T09:51:22.153Z,2.20
2018-09-22T09:52:22.115Z,1.80
2018-09-22T09:53:22.091Z,2.00
2018-09-22T09:54:22.286Z,1.90
2018-09-22T09:55:22.018Z,2.50
2018-09-22T09:56:21.972Z,2.20
2018-09-22T09:57:21.940Z,2.20
2018-09-22T09:58:21.900Z,2.00
2018-09-22T09:59:21.870Z,2.20
2018-09-22T10:00:21.846Z,2.20
2018-09-22T10:01:21.801Z,1.80
2018-09-22T10:02:21.771Z,2.40
2018-09-22T10:03:21.728Z,1.90
2018-09-22T10:04:21.706Z,1.90
2018-09-22T10:05:21.686Z,2.70
2018-09-22T10:06:21.616Z,2.50
2018-09-22T10:21:07.416Z,2.20
2018-09-22T10:22:06.158Z,2.10
2018-09-22T10:23:06.114Z,2.20
2018-09-22T10:24:06.074Z,2.10
2018-09-22T10:25:06.039Z,2.10
2018-09-22T10:26:06.002Z,1.90
2018-09-22T10:27:05.969Z,2.10
2018-09-22T10:28:05.991Z,1.70
2018-09-22T10:29:05.892Z,2.30
2018-09-22T10:30:05.852Z,2.00
2018-09-22T10:31:05.812Z,1.80
2018-09-22T10:32:05.780Z,2.10
2018-09-22T10:33:05.741Z,2.20
2018-09-22T10:34:05.708Z,2.00
2018-09-22T10:35:05.672Z,2.10
2018-09-22T10:36:05.630Z,2.10
2018-09-22T10:37:05.608Z,2.30
2018-09-22T10:38:05.565Z,2.40
2018-09-22T10:39:05.531Z,2.20
2018-09-22T10:40:05.498Z,2.00
2018-09-22T10:41:05.460Z,2.50
2018-09-22T10:42:05.471Z,2.10
2018-09-22T10:43:05.392Z,1.90
2018-09-22T10:44:05.351Z,2.40
2018-09-22T10:45:05.317Z,2.40
2018-09-22T10:46:05.282Z,1.80
2018-09-22T10:47:05.251Z,2.10
2018-09-22T10:48:05.214Z,2.10
2018-09-22T10:49:05.176Z,1.90
2018-09-22T10:50:05.142Z,1.80
2018-09-22T10:51:05.104Z,2.10
2018-09-22T10:52:05.087Z,2.00
2018-09-22T10:53:05.102Z,2.10
2018-09-22T10:54:05.002Z,2.10
2018-09-22T10:55:04.965Z,2.20
2018-09-22T10:56:04.929Z,2.30
2018-09-22T10:57:04.932Z,1.90
2018-09-22T10:58:04.875Z,1.70
2018-09-22T10:59:04.832Z,1.90
2018-09-22T11:00:04.800Z,1.90
2018-09-22T11:01:04.760Z,1.90
2018-09-22T11:02:04.726Z,1.70
2018-09-22T11:03:04.693Z,1.90
2018-09-22T11:04:04.653Z,1.90
2018-09-22T11:05:04.620Z,1.90
2018-09-22T11:06:04.589Z,2.20
2018-09-22T11:07:04.555Z,1.70
2018-09-22T11:08:04.518Z,1.90
2018-09-22T11:09:04.485Z,2.00
2018-09-22T11:10:04.456Z,2.30
2018-09-22T11:11:04.416Z,1.80
2018-09-22T11:12:04.402Z,1.80
2018-09-22T11:13:04.350Z,2.10
2018-09-22T11:14:04.315Z,2.10
2018-09-22T11:15:04.278Z,2.40
2018-09-22T11:16:04.241Z,2.00
2018-09-22T11:17:04.212Z,2.60
2018-09-22T11:18:04.177Z,1.90
2018-09-22T11:19:04.153Z,2.20
2018-09-22T11:20:04.110Z,1.90
2018-09-22T11:21:04.076Z,2.00
2018-09-22T11:22:04.049Z,1.60
2018-09-22T11:23:04.008Z,1.90
2018-09-22T11:24:03.973Z,1.80
2018-09-22T11:25:03.954Z,2.00
2018-09-22T11:26:03.904Z,1.80
2018-09-22T11:27:03.931Z,2.00
2018-09-22T11:28:03.836Z,2.10
2018-09-22T11:29:03.803Z,1.80
2018-09-22T11:30:03.775Z,2.00
2018-09-22T11:31:03.734Z,2.40
2018-09-22T11:32:03.704Z,1.90
2018-09-22T11:33:03.669Z,1.90
2018-09-22T11:34:03.629Z,2.20
2018-09-22T11:35:03.594Z,2.20
2018-09-22T11:36:03.559Z,2.10
2018-09-22T11:37:03.534Z,2.00
2018-09-22T11:38:03.495Z,1.80
2018-09-22T11:39:03.462Z,2.30
2018-09-22T11:40:03.423Z,2.10
2018-09-22T11:41:03.395Z,1.60
2018-09-22T11:42:03.365Z,2.20
2018-09-22T11:43:03.330Z,1.70
2018-09-22T11:44:03.293Z,2.30
2018-09-22T11:45:03.257Z,1.90
2018-09-22T11:46:03.221Z,1.90
2018-09-22T11:47:03.190Z,1.70
2018-09-22T11:48:03.152Z,2.20
2018-09-22T11:49:03.119Z,1.50
2018-09-22T11:50:03.090Z,1.60
2018-09-22T11:51:03.055Z,1.60
2018-09-22T11:52:03.021Z,1.80
2018-09-22T11:53:02.986Z,2.10
2018-09-22T11:54:02.950Z,2.00
2018-09-22T11:55:02.913Z,2.00
2018-09-22T11:56:02.883Z,2.00
2018-09-22T11:57:02.871Z,1.80
2018-09-22T11:58:02.816Z,1.60
2018-09-22T11:59:02.777Z,1.70
2018-09-22T12:00:02.742Z,1.70
2018-09-22T12:01:02.709Z,1.70
2018-09-22T12:02:02.692Z,1.60
2018-09-22T12:03:02.679Z,1.80
2018-09-22T12:04:02.612Z,1.50
2018-09-22T12:05:02.578Z,1.40
2018-09-22T12:06:02.607Z,1.90
2018-09-22T12:07:02.505Z,1.50
2018-09-22T12:08:02.469Z,2.00
2018-09-22T12:09:02.437Z,1.50
2018-09-22T12:10:02.405Z,1.90
2018-09-22T12:11:02.374Z,1.40
2018-09-22T12:12:02.333Z,1.70
2018-09-22T12:13:02.303Z,1.40
2018-09-22T12:14:02.280Z,1.50
2018-09-22T12:15:02.266Z,1.90
2018-09-22T12:16:02.205Z,1.40
2018-09-22T12:17:02.168Z,1.80
2018-09-22T12:18:02.133Z,1.50
2018-09-22T12:19:02.096Z,1.50
2018-09-22T12:20:02.061Z,1.50
2018-09-22T12:21:02.031Z,1.50
2018-09-22T12:22:02.002Z,1.70
2018-09-22T12:23:01.974Z,1.50
2018-09-22T12:24:01.931Z,1.60
2018-09-22T12:25:01.899Z,1.30
2018-09-22T12:26:01.887Z,1.40
2018-09-22T12:27:01.833Z,1.60
2018-09-22T12:28:01.797Z,2.00
2018-09-22T12:29:01.762Z,1.60
2018-09-22T12:30:01.730Z,1.40
2018-09-22T12:31:01.694Z,1.60
2018-09-22T12:32:01.738Z,1.60
2018-09-22T12:33:01.626Z,1.50
2018-09-22T12:34:01.597Z,1.50
2018-09-22T12:35:01.566Z,1.50
2018-09-22T12:36:01.526Z,1.50
2018-09-22T12:37:01.513Z,1.80
2018-09-22T12:38:01.467Z,1.60
2018-09-22T12:39:01.445Z,1.40
2018-09-22T12:40:01.422Z,1.70
2018-09-22T12:41:01.414Z,1.40
2018-09-22T12:42:01.323Z,1.50
2018-09-22T12:43:01.295Z,1.60
2018-09-22T12:44:01.261Z,1.50
2018-09-22T12:45:01.234Z,1.50
2018-09-22T12:46:01.237Z,1.30
2018-09-22T12:47:01.170Z,1.40
2018-09-22T12:48:01.127Z,1.50
2018-09-22T12:49:01.084Z,1.60
2018-09-22T12:50:01.057Z,1.70
2018-09-22T12:51:01.015Z,1.40
2018-09-22T12:52:00.979Z,1.40
2018-09-22T12:53:01.215Z,1.30
2018-09-22T12:54:00.959Z,1.70
2018-09-22T12:55:00.884Z,1.50
2018-09-22T12:56:00.853Z,1.60
2018-09-22T12:57:00.819Z,1.50
2018-09-22T12:58:00.957Z,1.30
2018-09-22T12:59:00.747Z,1.50
2018-09-22T13:00:00.719Z,1.60
2018-09-22T13:01:00.682Z,1.50
2018-09-22T13:02:00.646Z,1.60
2018-09-22T13:03:00.609Z,1.60
2018-09-22T13:04:00.580Z,1.80
2018-09-22T13:05:00.564Z,1.40
2018-09-22T13:06:00.512Z,1.80
2018-09-22T13:07:00.480Z,1.50
2018-09-22T13:08:00.450Z,1.40
2018-09-22T13:09:00.412Z,1.10
2018-09-22T13:10:00.377Z,1.60
2018-09-22T13:11:00.346Z,1.30
2018-09-22T13:12:00.308Z,1.60
2018-09-22T13:13:00.276Z,1.60
2018-09-22T13:14:00.245Z,1.70
2018-09-22T13:15:00.219Z,1.60
2018-09-22T13:16:00.176Z,1.50
2018-09-22T13:17:00.145Z,1.60
2018-09-22T13:18:00.118Z,1.80
2018-09-22T13:19:00.082Z,1.60
2018-09-22T13:20:00.049Z,1.50
2018-09-22T13:21:00.018Z,1.60
2018-09-22T13:21:59.986Z,1.60
2018-09-22T13:22:59.943Z,1.50
2018-09-22T13:23:59.914Z,1.60
2018-09-22T13:24:59.875Z,1.30
2018-09-22T13:25:59.873Z,1.50
2018-09-22T13:26:59.811Z,1.60
2018-09-22T13:27:59.835Z,1.80
2018-09-22T13:28:59.756Z,1.40
2018-09-22T13:29:59.748Z,1.40
2018-09-22T13:30:59.668Z,1.40
2018-09-22T13:31:59.654Z,1.50
2018-09-22T13:32:59.605Z,1.60
2018-09-22T13:33:59.600Z,1.30
2018-09-22T13:34:59.687Z,1.70
2018-09-22T13:35:59.503Z,1.70
2018-09-22T13:36:59.470Z,1.40
2018-09-22T13:37:59.438Z,1.20
2018-09-22T13:38:59.826Z,1.70
2018-09-22T13:39:59.373Z,1.40
2018-09-22T13:40:59.333Z,1.50
2018-09-22T13:41:59.300Z,1.50
2018-09-22T13:42:59.263Z,1.50
2018-09-22T13:43:59.227Z,1.40
2018-09-22T13:44:59.198Z,1.80